createdAt,value
2018-10-19T00:00:37.917Z,98083.66
2018-10-19T00:02:14.142Z,98074.31
2018-10-19T00:03:50.467Z,98073.97
2018-10-19T00:05:25.884Z,98077.31
2018-10-19T00:07:03.172Z,98070.55
2018-10-19T00:08:38.647Z,98068.83
2018-10-19T00:10:14.931Z,98069.25
2018-10-19T00:11:51.337Z,98069.06
2018-10-19T00:13:28.291Z,98068.30
2018-10-19T00:15:06.387Z,98068.89
2018-10-19T00:16:41.481Z,98064.25
2018-10-19T00:18:17.291Z,98060.23
2018-10-19T00:19:52.323Z,98061.59
2018-10-19T00:21:27.754Z,98052.00
2018-10-19T00:23:03.853Z,98055.76
2018-10-19T00:24:39.064Z,98052.86
2018-10-19T00:26:14.439Z,98055.42
2018-10-19T00:27:52.598Z,98050.81
2018-10-19T00:29:28.518Z,98047.63
2018-10-19T00:31:04.373Z,98054.74
2018-10-19T00:32:39.762Z,98052.48
2018-10-19T00:34:16.512Z,98059.70
2018-10-19T00:35:51.824Z,98052.24
2018-10-19T00:37:27.317Z,98058.92
2018-10-19T00:39:03.555Z,98054.15
2018-10-19T00:40:38.955Z,98054.74
2018-10-19T00:42:15.521Z,98053.08
2018-10-19T00:43:51.726Z,98054.39
2018-10-19T00:45:32.188Z,98056.36
2018-10-19T00:47:08.056Z,98051.30
2018-10-19T00:48:43.371Z,98056.89
2018-10-19T00:50:18.840Z,98062.28
2018-10-19T00:51:54.276Z,98058.41
2018-10-19T00:53:30.387Z,98056.71
2018-10-19T00:55:05.497Z,98062.52
2018-10-19T00:56:41.487Z,98060.41
2018-10-19T00:58:18.042Z,98064.58
2018-10-19T00:59:54.965Z,98060.53
2018-10-19T01:01:30.685Z,98064.05
2018-10-19T01:03:06.418Z,98062.44
2018-10-19T01:04:42.974Z,98063.56
2018-10-19T01:06:18.273Z,98058.41
2018-10-19T01:07:53.863Z,98064.00
2018-10-19T01:09:30.141Z,98058.59
2018-10-19T01:11:06.439Z,98066.39
2018-10-19T01:12:43.410Z,98057.55
2018-10-19T01:14:20.452Z,98063.45
2018-10-19T01:15:58.688Z,98060.89
2018-10-19T01:17:34.268Z,98061.84
2018-10-19T01:19:09.840Z,98059.27
2018-10-19T01:20:47.519Z,98060.05
2018-10-19T01:22:22.843Z,98061.92
2018-10-19T01:23:59.195Z,98053.38
2018-10-19T01:25:35.932Z,98054.98
2018-10-19T01:27:12.128Z,98052.24
2018-10-19T01:28:47.682Z,98058.56
2018-10-19T01:30:23.713Z,98058.92
2018-10-19T01:31:59.185Z,98052.84
2018-10-19T01:33:34.966Z,98057.02
2018-10-19T01:35:12.434Z,98057.67
2018-10-19T01:36:47.971Z,98062.14
2018-10-19T01:38:24.191Z,98056.48
2018-10-19T01:40:00.919Z,98061.01
2018-10-19T01:41:36.523Z,98059.58
2018-10-19T01:43:12.591Z,98058.27
2018-10-19T01:44:48.006Z,98058.36
2018-10-19T01:46:23.260Z,98062.86
2018-10-19T01:47:59.387Z,98059.59
2018-10-19T01:49:34.806Z,98063.03
2018-10-19T01:51:11.601Z,98067.47
2018-10-19T01:52:46.700Z,98073.42
2018-10-19T01:54:22.773Z,98073.14
2018-10-19T01:56:00.001Z,98072.37
2018-10-19T01:57:35.311Z,98074.03
2018-10-19T01:59:11.096Z,98080.19
2018-10-19T02:00:48.274Z,98083.93
2018-10-19T02:02:23.668Z,98087.73
2018-10-19T02:03:59.744Z,98090.00
2018-10-19T02:05:35.135Z,98098.39
2018-10-19T02:07:10.539Z,98097.90
2018-10-19T02:08:45.806Z,98109.02
2018-10-19T02:10:21.727Z,98110.59
2018-10-19T02:11:58.876Z,98117.55
2018-10-19T02:13:35.214Z,98134.02
2018-10-19T02:15:10.476Z,98156.42
2018-10-19T02:16:45.884Z,98170.33
2018-10-19T02:18:21.239Z,98172.21
2018-10-19T02:19:57.763Z,98432.33
2018-10-19T02:21:34.502Z,98442.75
2018-10-19T02:23:09.818Z,98442.55
2018-10-19T02:24:45.293Z,98447.47
2018-10-19T02:26:20.458Z,98452.16
2018-10-19T02:27:56.115Z,98461.73
2018-10-19T02:29:31.783Z,98467.99
2018-10-19T02:31:07.230Z,98474.12
2018-10-19T02:32:43.261Z,98487.41
2018-10-19T02:34:19.777Z,98501.09
2018-10-19T02:37:56.585Z,98521.77
2018-10-19T02:39:31.567Z,98538.77
2018-10-19T02:41:07.678Z,98563.17
2018-10-19T02:42:46.107Z,98570.59
2018-10-19T02:44:21.808Z,98582.89
2018-10-19T02:45:58.127Z,98580.98
2018-10-19T02:49:16.425Z,98585.23
2018-10-19T02:50:52.524Z,98597.33
2018-10-19T02:52:28.818Z,98594.02
2018-10-19T02:54:04.039Z,98586.73
2018-10-19T02:55:39.832Z,98586.73
2018-10-19T02:57:15.169Z,98590.84
2018-10-19T02:58:53.493Z,98593.95
2018-10-19T03:00:29.397Z,98612.14
2018-10-19T03:02:04.615Z,98708.83
2018-10-19T03:03:40.605Z,98707.69
2018-10-19T03:05:16.159Z,98712.92
2018-10-19T03:06:53.368Z,98715.50
2018-10-19T03:08:31.212Z,98718.43
2018-10-19T03:10:10.227Z,98732.69
2018-10-19T03:11:46.602Z,98731.91
2018-10-19T03:13:21.979Z,98835.84
2018-10-19T03:14:58.565Z,98961.78
2018-10-19T03:16:35.090Z,98987.77
2018-10-19T03:18:10.382Z,99028.38
2018-10-19T03:19:47.647Z,99049.64
2018-10-19T03:21:24.850Z,99057.45
2018-10-19T03:23:02.825Z,99076.38
2018-10-19T03:24:38.122Z,99124.23
2018-10-19T03:26:14.071Z,99144.50
2018-10-19T03:27:49.181Z,99606.00
2018-10-19T03:29:24.529Z,99675.77
2018-10-19T03:31:00.627Z,99693.11
2018-10-19T03:32:36.510Z,99723.94
2018-10-19T03:34:12.636Z,99976.44
2018-10-19T03:35:51.744Z,100019.47
2018-10-19T03:37:27.931Z,100036.98
2018-10-19T03:39:03.412Z,100056.55
2018-10-19T03:40:38.629Z,100072.34
2018-10-19T03:42:16.267Z,100090.81
2018-10-19T03:43:52.879Z,100109.55
2018-10-19T03:45:31.813Z,100119.28
2018-10-19T03:47:09.165Z,100131.09
2018-10-19T03:48:45.909Z,100140.02
2018-10-19T03:50:22.393Z,100144.64
2018-10-19T03:51:58.768Z,100157.64
2018-10-19T03:53:34.232Z,100163.17
2018-10-19T03:55:12.331Z,100177.61
2018-10-19T03:56:52.214Z,100186.88
2018-10-19T03:58:30.239Z,100207.55
2018-10-19T04:00:08.070Z,100209.38
2018-10-19T04:01:45.504Z,100215.45
2018-10-19T04:03:22.360Z,100220.61
2018-10-19T04:04:59.663Z,100231.17
2018-10-19T04:06:36.431Z,100239.02
2018-10-19T04:08:12.895Z,100250.06
2018-10-19T04:09:51.802Z,100262.11
2018-10-19T04:11:31.354Z,100274.94
2018-10-19T04:13:06.639Z,100296.19
2018-10-19T04:14:44.216Z,100305.96
2018-10-19T04:16:19.825Z,100321.73
2018-10-19T04:17:55.034Z,100366.50
2018-10-19T04:19:30.931Z,100387.85
2018-10-19T04:21:06.042Z,100424.08
2018-10-19T04:22:41.174Z,100431.34
2018-10-19T04:24:17.241Z,100445.86
2018-10-19T04:25:53.095Z,100458.09
2018-10-19T04:27:30.768Z,100472.75
2018-10-19T04:29:07.470Z,100483.94
2018-10-19T04:30:44.920Z,100498.22
2018-10-19T04:32:21.108Z,100512.72
2018-10-19T04:33:57.457Z,100522.81
2018-10-19T04:35:33.622Z,100539.24
2018-10-19T04:37:10.403Z,100543.80
2018-10-19T04:38:45.543Z,100555.34
2018-10-19T04:40:22.675Z,100565.67
2018-10-19T04:41:58.181Z,100564.17
2018-10-19T04:43:33.751Z,100569.13
2018-10-19T04:45:09.138Z,100577.16
2018-10-19T04:46:44.376Z,100585.50
2018-10-19T04:48:21.067Z,100593.08
2018-10-19T04:49:56.212Z,100600.20
2018-10-19T04:51:31.874Z,100602.75
2018-10-19T04:53:08.601Z,100609.81
2018-10-19T04:54:44.629Z,100616.11
2018-10-19T04:56:20.077Z,100619.31
2018-10-19T04:57:55.236Z,100628.32
2018-10-19T04:59:30.748Z,100639.95
2018-10-19T05:01:06.336Z,100657.32
2018-10-19T05:02:42.734Z,100675.32
2018-10-19T05:04:18.258Z,100681.33
2018-10-19T05:05:53.625Z,100686.56
2018-10-19T05:07:29.114Z,100699.25
2018-10-19T05:09:07.683Z,100712.70
2018-10-19T05:10:42.800Z,100718.78
2018-10-19T05:12:18.604Z,100732.83
2018-10-19T05:13:54.624Z,100736.70
2018-10-19T05:15:31.441Z,100741.06
2018-10-19T05:17:06.566Z,100749.14
2018-10-19T05:18:42.415Z,100760.04
2018-10-19T05:20:18.693Z,100782.02
2018-10-19T05:21:54.414Z,100794.66
2018-10-19T05:23:30.896Z,100804.73
2018-10-19T05:25:07.316Z,100820.19
2018-10-19T05:26:42.441Z,100828.36
2018-10-19T05:28:17.846Z,100829.91
2018-10-19T05:29:57.147Z,100838.23
2018-10-19T05:31:35.894Z,100853.99
2018-10-19T05:33:11.379Z,100864.63
2018-10-19T05:34:46.350Z,100866.23
2018-10-19T05:36:21.639Z,100885.55
2018-10-19T05:37:56.868Z,100887.56
2018-10-19T05:39:33.495Z,100896.59
2018-10-19T05:41:09.127Z,100899.91
2018-10-19T05:42:48.803Z,100914.93
2018-10-19T05:44:26.975Z,100927.55
2018-10-19T05:46:04.343Z,100935.83
2018-10-19T05:47:40.745Z,100950.72
2018-10-19T05:49:16.238Z,100954.22
2018-10-19T05:50:51.551Z,100971.53
2018-10-19T05:52:27.096Z,100979.02
2018-10-19T05:54:02.279Z,100981.36
2018-10-19T05:55:38.090Z,100984.95
2018-10-19T05:57:13.350Z,100990.67
2018-10-19T05:58:50.607Z,100999.81
2018-10-19T06:00:27.614Z,101017.02
2018-10-19T06:02:04.425Z,101017.23
2018-10-19T06:03:41.424Z,101059.35
2018-10-19T06:05:17.630Z,101102.39
2018-10-19T06:06:55.542Z,101125.45
2018-10-19T06:08:31.311Z,101146.38
2018-10-19T06:10:08.311Z,101167.06
2018-10-19T06:11:44.535Z,101180.35
2018-10-19T06:13:20.644Z,101192.48
2018-10-19T06:14:56.614Z,101202.06
2018-10-19T06:16:33.212Z,101215.52
2018-10-19T06:18:09.520Z,101216.30
2018-10-19T06:19:45.868Z,101231.16
2018-10-19T06:21:26.252Z,101245.97
2018-10-19T06:23:03.294Z,101289.43
2018-10-19T06:24:41.859Z,101343.55
2018-10-19T06:26:17.032Z,101394.24
2018-10-19T06:27:52.795Z,101439.25
2018-10-19T06:29:30.383Z,101488.30
2018-10-19T06:31:06.604Z,101542.80
2018-10-19T06:32:43.306Z,101577.98
2018-10-19T06:34:20.172Z,101703.64
2018-10-19T06:35:57.796Z,101746.27
2018-10-19T06:37:38.758Z,101783.78
2018-10-19T06:39:15.407Z,101799.64
2018-10-19T06:40:50.770Z,101818.69
2018-10-19T06:42:26.304Z,101827.41
2018-10-19T06:44:02.018Z,101847.48
2018-10-19T06:45:41.335Z,101869.97
2018-10-19T06:47:17.286Z,101890.09
2018-10-19T06:48:53.437Z,101909.61
2018-10-19T06:50:33.501Z,101921.80
2018-10-19T06:52:09.495Z,101945.36
2018-10-19T06:53:53.042Z,101956.97
2018-10-19T06:55:31.319Z,101994.57
2018-10-19T06:57:09.752Z,102002.23
2018-10-19T06:58:45.947Z,102022.33
2018-10-19T07:00:23.759Z,102036.93
2018-10-19T07:02:00.018Z,102043.67
2018-10-19T07:03:35.522Z,102060.84
2018-10-19T07:05:12.030Z,102075.02
2018-10-19T07:06:51.126Z,102092.86
2018-10-19T07:08:26.591Z,102121.86
2018-10-19T07:10:03.069Z,102132.22
2018-10-19T07:11:44.715Z,102153.44
2018-10-19T07:13:21.891Z,102178.98
2018-10-19T07:14:58.908Z,102192.78
2018-10-19T07:16:37.641Z,102217.78
2018-10-19T07:18:14.632Z,102236.49
2018-10-19T07:19:50.868Z,102246.27
2018-10-19T07:21:27.397Z,102270.95
2018-10-19T07:23:03.428Z,102283.20
2018-10-19T07:24:38.940Z,102303.02
2018-10-19T07:26:15.506Z,102322.61
2018-10-19T07:27:52.308Z,102341.56
2018-10-19T07:30:00.077Z,102361.97
2018-10-19T07:31:38.097Z,102449.16
2018-10-19T07:33:14.333Z,102435.40
2018-10-19T07:34:53.743Z,102453.58
2018-10-19T07:36:29.918Z,102472.66
2018-10-19T07:38:08.010Z,102482.42
2018-10-19T07:39:43.416Z,102506.13
2018-10-19T07:41:19.662Z,102515.60
2018-10-19T07:42:56.299Z,102541.47
2018-10-19T07:44:32.388Z,102565.91
2018-10-19T07:46:08.083Z,102573.25
2018-10-19T07:47:44.921Z,102599.33
2018-10-19T07:49:22.042Z,102616.16
2018-10-19T07:50:58.235Z,102638.95
2018-10-19T07:52:33.504Z,102648.27
2018-10-19T07:54:09.323Z,102671.70
2018-10-19T07:55:44.440Z,102681.73
2018-10-19T07:57:21.476Z,102705.69
2018-10-19T07:58:57.888Z,102722.77
2018-10-19T08:00:33.365Z,102743.69
2018-10-19T08:02:08.773Z,102765.17
2018-10-19T08:03:48.859Z,102795.06
2018-10-19T08:05:24.965Z,102819.91
2018-10-19T08:07:05.380Z,102833.47
2018-10-19T08:08:44.083Z,102861.28
2018-10-19T08:10:19.542Z,102887.20
2018-10-19T08:11:57.284Z,102904.30
2018-10-19T08:13:35.013Z,102924.17
2018-10-19T08:15:13.740Z,103031.99
2018-10-19T08:16:50.600Z,103092.97
2018-10-19T08:18:27.379Z,103138.08
2018-10-19T08:20:02.759Z,103183.55
2018-10-19T08:21:39.298Z,103207.09
2018-10-19T08:23:18.693Z,103240.69
2018-10-19T08:24:58.945Z,103278.67
2018-10-19T08:26:35.821Z,103324.36
2018-10-19T08:28:14.754Z,103339.97
2018-10-19T08:29:55.003Z,103379.64
2018-10-19T08:31:31.943Z,103407.68
2018-10-19T08:33:07.662Z,103439.69
2018-10-19T08:34:43.199Z,103472.82
2018-10-19T08:36:19.836Z,103519.56
2018-10-19T08:38:01.803Z,103564.79
2018-10-19T08:39:37.333Z,103603.39
2018-10-19T08:41:15.269Z,103630.23
2018-10-19T08:42:52.180Z,103685.55
2018-10-19T08:44:28.342Z,103708.92
2018-10-19T08:46:09.268Z,103747.05
2018-10-19T08:47:46.058Z,103809.27
2018-10-19T08:49:23.935Z,103836.71
2018-10-19T08:50:59.070Z,103860.06
2018-10-19T08:52:34.853Z,103901.21
2018-10-19T08:54:12.358Z,103919.89
2018-10-19T08:55:47.929Z,103954.48
2018-10-19T08:57:25.951Z,103986.00
2018-10-19T08:59:01.425Z,103995.36
2018-10-19T09:00:37.981Z,104010.16
2018-10-19T09:02:13.630Z,104045.27
2018-10-19T09:03:48.666Z,104058.45
2018-10-19T09:05:24.224Z,104066.11
2018-10-19T09:07:00.077Z,104072.98
2018-10-19T09:08:35.660Z,104071.05
2018-10-19T09:10:10.805Z,104088.33
2018-10-19T09:11:46.506Z,104094.08
2018-10-19T09:13:22.951Z,104094.90
2018-10-19T09:14:59.449Z,104095.11
2018-10-19T09:16:34.844Z,104097.24
2018-10-19T09:18:10.238Z,104077.77
2018-10-19T09:19:48.984Z,104085.94
2018-10-19T09:21:31.459Z,104091.56
2018-10-19T09:23:08.504Z,104090.09
2018-10-19T09:24:46.690Z,103997.14
2018-10-19T09:26:25.075Z,103968.73
2018-10-19T09:28:00.845Z,103928.47
2018-10-19T09:29:38.397Z,103889.36
2018-10-19T09:31:18.425Z,103842.00
2018-10-19T09:33:00.076Z,103836.20
2018-10-19T09:34:37.286Z,103818.33
2018-10-19T09:36:18.192Z,103771.88
2018-10-19T09:37:55.723Z,103720.80
2018-10-19T09:39:34.793Z,103682.78
2018-10-19T09:41:14.121Z,103590.89
2018-10-19T09:42:51.480Z,103562.95
2018-10-19T09:44:28.469Z,103476.30
2018-10-19T09:46:10.300Z,103360.94
2018-10-19T09:47:46.092Z,103208.63
2018-10-19T09:49:24.271Z,103047.36
2018-10-19T09:51:01.713Z,102893.11
2018-10-19T09:52:40.558Z,102717.67
2018-10-19T09:54:20.469Z,102411.48
2018-10-19T09:56:01.341Z,102004.70
2018-10-19T09:57:39.457Z,101503.03
2018-10-19T09:59:22.762Z,100959.05
2018-10-19T10:01:03.743Z,100495.80
2018-10-19T10:02:40.439Z,99930.14
2018-10-19T10:04:17.884Z,99706.66
2018-10-19T10:06:03.997Z,99246.66
2018-10-19T10:07:41.744Z,98681.48
2018-10-19T10:09:19.642Z,98277.04
2018-10-19T10:10:55.285Z,98153.39
2018-10-19T10:12:31.412Z,98022.70
2018-10-19T10:14:09.952Z,97950.36
2018-10-19T10:15:48.504Z,97914.19
2018-10-19T10:17:26.897Z,97896.63
2018-10-19T10:19:07.233Z,97886.74
2018-10-19T10:20:47.676Z,97874.39
2018-10-19T10:22:31.538Z,97846.17
2018-10-19T10:24:08.907Z,97821.55
2018-10-19T10:25:47.984Z,97814.48
2018-10-19T10:29:17.340Z,97768.05
2018-10-19T10:30:57.458Z,97729.11
2018-10-19T10:32:36.328Z,97730.98
2018-10-19T10:34:30.485Z,97712.30
2018-10-19T10:36:14.413Z,97679.06
2018-10-19T10:37:53.874Z,97683.96
2018-10-19T10:39:34.575Z,97658.50
2018-10-19T10:41:15.355Z,97643.34
2018-10-19T10:42:54.306Z,97635.68
2018-10-19T10:44:34.613Z,97643.64
2018-10-19T10:46:14.459Z,97639.19
2018-10-19T10:47:55.240Z,97646.09
2018-10-19T10:49:35.352Z,97658.05
2018-10-19T10:51:14.360Z,97649.47
2018-10-19T10:52:53.414Z,97642.81
2018-10-19T10:54:37.892Z,97644.64
2018-10-19T10:56:18.672Z,97647.28
2018-10-19T10:57:56.002Z,97650.67
2018-10-19T10:59:31.372Z,97636.41
2018-10-19T11:01:06.584Z,97642.57
2018-10-19T11:02:42.610Z,97642.09
2018-10-19T11:04:19.475Z,97638.40
2018-10-19T11:05:56.724Z,97648.81
2018-10-19T11:07:33.368Z,97642.22
2018-10-19T11:09:11.298Z,97657.42
2018-10-19T11:10:47.290Z,97646.52
2018-10-19T11:12:24.745Z,97652.19
2018-10-19T11:14:01.612Z,97661.98
2018-10-19T11:15:38.680Z,97665.36
2018-10-19T11:17:16.505Z,97663.84
2018-10-19T11:18:56.957Z,97668.70
2018-10-19T11:20:36.035Z,97676.32
2018-10-19T11:22:12.263Z,97673.11
2018-10-19T11:23:48.954Z,97672.95
2018-10-19T11:25:28.683Z,97670.65
2018-10-19T11:27:07.705Z,97677.86
2018-10-19T11:28:44.594Z,97678.33
2018-10-19T11:30:27.251Z,97671.58
2018-10-19T11:32:06.436Z,97676.14
2018-10-19T11:33:43.649Z,97679.69
2018-10-19T11:35:25.557Z,97677.59
2018-10-19T11:37:09.731Z,97678.47
2018-10-19T11:38:47.534Z,97674.86
2018-10-19T11:40:40.144Z,97673.49
2018-10-19T11:42:21.345Z,97668.14
2018-10-19T11:44:02.378Z,97669.80
2018-10-19T11:45:45.112Z,97667.52
2018-10-19T11:47:31.331Z,97673.03
2018-10-19T11:49:09.950Z,97667.55
2018-10-19T11:50:45.993Z,97659.73
2018-10-19T11:52:35.030Z,97672.77
2018-10-19T11:54:19.443Z,97671.67
2018-10-19T11:55:57.379Z,97672.89
2018-10-19T11:57:33.562Z,97676.42
2018-10-19T11:59:13.455Z,97671.52
2018-10-19T12:00:53.319Z,97668.92
2018-10-19T12:02:35.261Z,97663.08
2018-10-19T12:04:16.643Z,97664.61
2018-10-19T12:05:56.062Z,97673.36
2018-10-19T12:07:31.953Z,97666.14
2018-10-19T12:09:10.658Z,97662.64
2018-10-19T12:10:46.647Z,97653.59
2018-10-19T12:12:23.356Z,97643.66
2018-10-19T12:14:00.648Z,97641.03
2018-10-19T12:15:42.050Z,97646.56
2018-10-19T12:17:22.272Z,97638.58
2018-10-19T12:19:00.110Z,97641.19
2018-10-19T12:20:38.304Z,97642.57
2018-10-19T12:22:16.503Z,97641.33
2018-10-19T12:23:56.709Z,97646.41
2018-10-19T12:25:35.623Z,97643.03
2018-10-19T12:27:25.158Z,97652.80
2018-10-19T12:29:04.104Z,97648.40
2018-10-19T12:30:40.348Z,97648.24
2018-10-19T12:32:17.781Z,97653.31
2018-10-19T12:33:56.660Z,97641.50
2018-10-19T12:35:33.250Z,97647.46
2018-10-19T12:37:11.685Z,97646.09
2018-10-19T12:38:47.592Z,97642.26
2018-10-19T12:40:23.596Z,97636.28
2018-10-19T12:42:00.883Z,97638.73
2018-10-19T12:43:37.186Z,97631.23
2018-10-19T12:45:23.871Z,97640.88
2018-10-19T12:47:12.790Z,97636.58
2018-10-19T12:48:57.314Z,97634.58
2018-10-19T12:50:37.079Z,97640.25
2018-10-19T12:52:13.691Z,97643.00
2018-10-19T12:53:50.382Z,97651.88
2018-10-19T12:55:27.083Z,97663.80
2018-10-19T12:57:03.893Z,97659.38
2018-10-19T12:58:39.218Z,97654.72
2018-10-19T13:00:19.327Z,97649.73
2018-10-19T13:01:57.324Z,97643.77
2018-10-19T13:03:33.822Z,97646.53
2018-10-19T13:05:11.045Z,97648.64
2018-10-19T13:06:47.460Z,97646.65
2018-10-19T13:08:28.255Z,97647.26
2018-10-19T13:10:04.176Z,97647.91
2018-10-19T13:11:39.920Z,97644.09
2018-10-19T13:13:28.240Z,97635.64
2018-10-19T13:15:16.133Z,97640.07
2018-10-19T13:16:58.169Z,97651.09
2018-10-19T13:18:45.537Z,97647.87
2018-10-19T13:20:25.915Z,97653.54
2018-10-19T13:22:07.288Z,97650.96
2018-10-19T13:23:51.763Z,97643.77
2018-10-19T13:25:35.567Z,97640.39
2018-10-19T13:27:19.748Z,97638.42
2018-10-19T13:29:02.567Z,97629.83
2018-10-19T13:32:25.572Z,97618.96
2018-10-19T13:34:13.256Z,97623.55
2018-10-19T13:35:57.539Z,97625.25
2018-10-19T13:37:39.030Z,97621.11
2018-10-19T13:42:52.500Z,97620.20
2018-10-19T13:44:34.757Z,97617.45
2018-10-19T13:46:12.572Z,97613.76
2018-10-19T13:47:50.223Z,97608.37
2018-10-19T13:49:26.831Z,97605.02
2018-10-19T13:51:05.837Z,97611.00
2018-10-19T13:52:44.501Z,97601.47
2018-10-19T13:54:25.561Z,97602.23
2018-10-19T13:56:03.463Z,97601.19
2018-10-19T13:57:41.020Z,97599.34
2018-10-19T13:59:20.364Z,97605.95
2018-10-19T14:00:56.520Z,97594.29
2018-10-19T14:02:31.575Z,97597.52
2018-10-19T14:04:07.845Z,97588.31
2018-10-19T14:05:43.154Z,97591.52
2018-10-19T14:07:19.220Z,97594.92
2018-10-19T14:08:58.691Z,97590.16
2018-10-19T14:10:36.070Z,97590.16
2018-10-19T14:12:11.275Z,97591.54
2018-10-19T14:13:48.285Z,97587.71
2018-10-19T14:15:24.378Z,97587.55
2018-10-19T14:17:01.048Z,97587.25
2018-10-19T14:18:37.102Z,97590.16
2018-10-19T14:20:13.441Z,97589.70
2018-10-19T14:21:49.519Z,97593.38
2018-10-19T14:23:30.367Z,97597.06
2018-10-19T14:25:07.679Z,97590.46
2018-10-19T14:26:43.569Z,97585.89
2018-10-19T14:28:24.276Z,97583.72
2018-10-19T14:30:01.384Z,97580.20
2018-10-19T14:31:40.612Z,97577.61
2018-10-19T14:33:19.612Z,97576.97
2018-10-19T14:34:57.806Z,97575.61
2018-10-19T14:36:34.215Z,97579.91
2018-10-19T14:38:11.088Z,97582.21
2018-10-19T14:39:54.814Z,97574.84
2018-10-19T14:41:30.943Z,97574.70
2018-10-19T14:43:07.285Z,97575.46
2018-10-19T14:44:45.568Z,97574.55
2018-10-19T14:46:23.573Z,97571.95
2018-10-19T14:48:00.005Z,97571.18
2018-10-19T14:49:40.111Z,97569.94
2018-10-19T14:51:20.305Z,97575.45
2018-10-19T14:52:58.728Z,97578.66
2018-10-19T14:54:34.737Z,97569.78
2018-10-19T14:56:11.536Z,97561.52
2018-10-19T14:57:46.666Z,97563.83
2018-10-19T14:59:27.190Z,97571.02
2018-10-19T15:01:05.835Z,97575.58
2018-10-19T15:02:45.248Z,97572.36
2018-10-19T15:04:34.989Z,97569.92
2018-10-19T15:06:17.049Z,97568.56
2018-10-19T15:07:56.118Z,97575.31
2018-10-19T15:09:34.135Z,97577.61
2018-10-19T15:11:16.736Z,97580.83
2018-10-19T15:12:54.624Z,97583.72
2018-10-19T15:14:32.353Z,97578.20
2018-10-19T15:16:08.859Z,97573.92
2018-10-19T15:17:44.673Z,97567.04
2018-10-19T15:19:26.905Z,97569.03
2018-10-19T15:21:08.392Z,97569.19
2018-10-19T15:22:45.221Z,97572.70
2018-10-19T15:24:21.578Z,97568.55
2018-10-19T15:25:58.874Z,97562.43
2018-10-19T15:27:34.865Z,97568.25
2018-10-19T15:29:15.638Z,97563.36
2018-10-19T15:31:01.120Z,97561.81
2018-10-19T15:32:44.708Z,97571.61
2018-10-19T15:34:23.797Z,97581.09
2018-10-19T15:36:00.510Z,97582.79
2018-10-19T15:37:36.907Z,97583.38
2018-10-19T15:39:20.393Z,97585.35
2018-10-19T15:41:06.094Z,97575.98
2018-10-19T15:42:41.724Z,97574.74
2018-10-19T15:44:16.950Z,97573.23
2018-10-19T15:45:54.102Z,97580.26
2018-10-19T15:47:34.076Z,97580.00
2018-10-19T15:49:11.494Z,97579.85
2018-10-19T15:50:49.159Z,97581.55
2018-10-19T15:52:27.771Z,97579.55
2018-10-19T15:54:05.290Z,97581.09
2018-10-19T15:55:41.644Z,97581.64
2018-10-19T15:57:21.671Z,97587.73
2018-10-19T15:59:34.922Z,97581.93
2018-10-19T16:01:15.612Z,97584.30
2018-10-19T16:02:53.826Z,97594.55
2018-10-19T16:04:29.380Z,97601.69
2018-10-19T16:06:07.335Z,97605.81
2018-10-19T16:07:44.465Z,97604.44
2018-10-19T16:09:20.726Z,97609.91
2018-10-19T16:10:55.956Z,97603.80
2018-10-19T16:12:31.366Z,97612.50
2018-10-19T16:14:06.564Z,97612.47
2018-10-19T16:15:43.454Z,97610.45
2018-10-19T16:17:19.230Z,97616.67
2018-10-19T16:18:59.326Z,97627.36
2018-10-19T16:20:34.817Z,97624.11
2018-10-19T16:22:10.057Z,97629.02
2018-10-19T16:23:50.226Z,97634.19
2018-10-19T16:25:27.549Z,97635.84
2018-10-19T16:27:03.821Z,97633.83
2018-10-19T16:28:40.730Z,97643.90
2018-10-19T16:30:18.240Z,97641.47
2018-10-19T16:31:56.001Z,97647.23
2018-10-19T16:33:33.586Z,97653.63
2018-10-19T16:35:09.685Z,97647.20
2018-10-19T16:36:45.876Z,97660.46
2018-10-19T16:38:22.568Z,97666.99
2018-10-19T16:40:02.156Z,97676.71
2018-10-19T16:41:40.173Z,97684.72
2018-10-19T16:43:16.292Z,97688.48
2018-10-19T16:44:56.752Z,97701.90
2018-10-19T16:46:33.136Z,97709.98
2018-10-19T16:48:09.162Z,97715.59
2018-10-19T16:49:44.974Z,97734.64
2018-10-19T16:51:27.159Z,97739.47
2018-10-19T16:53:04.758Z,97738.02
2018-10-19T16:54:44.811Z,97752.00
2018-10-19T16:56:22.680Z,97765.16
2018-10-19T16:57:58.286Z,97779.26
2018-10-19T16:59:36.699Z,97796.78
2018-10-19T17:01:15.297Z,97794.60
2018-10-19T17:02:51.441Z,97800.70
2018-10-19T17:04:28.129Z,97805.69
2018-10-19T17:06:07.712Z,97811.02
2018-10-19T17:07:47.626Z,97811.67
2018-10-19T17:09:26.767Z,97819.84
2018-10-19T17:11:04.219Z,97824.56
2018-10-19T17:12:40.865Z,97825.59
2018-10-19T17:14:19.262Z,97836.41
2018-10-19T17:15:57.979Z,97841.00
2018-10-19T17:17:36.628Z,97847.69
2018-10-19T17:19:16.679Z,97852.41
2018-10-19T17:20:58.546Z,97852.08
2018-10-19T17:22:36.364Z,97853.28
2018-10-19T17:24:12.541Z,97860.23
2018-10-19T17:25:49.415Z,97865.98
2018-10-19T17:27:30.366Z,97863.36
2018-10-19T17:29:06.473Z,97866.28
2018-10-19T17:30:52.750Z,97871.77
2018-10-19T17:32:31.901Z,97870.66
2018-10-19T17:34:07.921Z,97872.20
2018-10-19T17:35:45.994Z,97874.61
2018-10-19T17:37:23.397Z,97870.23
2018-10-19T17:39:00.906Z,97879.96
2018-10-19T17:40:39.275Z,97879.24
2018-10-19T17:42:14.810Z,97876.06
2018-10-19T17:43:52.737Z,97878.81
2018-10-19T17:45:37.031Z,97883.48
2018-10-19T17:47:14.488Z,97887.00
2018-10-19T17:48:52.878Z,97888.28
2018-10-19T17:50:29.249Z,97887.86
2018-10-19T17:52:08.593Z,97889.31
2018-10-19T17:53:46.849Z,97894.80
2018-10-19T17:55:25.198Z,97898.06
2018-10-19T17:57:02.373Z,97901.92
2018-10-19T17:58:46.631Z,97904.16
2018-10-19T18:00:32.915Z,97903.33
2018-10-19T18:02:18.864Z,97908.81
2018-10-19T18:03:58.480Z,97906.23
2018-10-19T18:05:36.605Z,97922.53
2018-10-19T18:07:12.841Z,97917.22
2018-10-19T18:08:48.627Z,97924.77
2018-10-19T18:10:25.500Z,97927.94
2018-10-19T18:12:02.657Z,97926.98
2018-10-19T18:15:41.323Z,97927.18
2018-10-19T18:17:17.730Z,97936.27
2018-10-19T18:18:57.756Z,97939.44
2018-10-19T18:20:35.655Z,97942.29
2018-10-19T18:22:11.878Z,97948.38
2018-10-19T18:23:54.013Z,97955.06
2018-10-19T18:25:31.849Z,97950.95
2018-10-19T18:27:10.468Z,97958.80
2018-10-19T18:28:53.967Z,97959.74
2018-10-19T18:30:32.654Z,97956.44
2018-10-19T18:32:11.760Z,97959.57
2018-10-19T18:33:49.069Z,97963.77
2018-10-19T18:35:33.503Z,97963.77
2018-10-19T18:37:11.388Z,97959.72
2018-10-19T18:38:48.877Z,97957.27
2018-10-19T18:40:24.611Z,97958.10
2018-10-19T18:42:00.622Z,97954.76
2018-10-19T18:43:37.294Z,97956.31
2018-10-19T18:45:16.967Z,97953.82
2018-10-19T18:46:54.427Z,97949.53
2018-10-19T18:48:34.271Z,97949.53
2018-10-19T18:50:10.750Z,97949.27
2018-10-19T18:51:47.355Z,97946.02
2018-10-19T18:53:23.705Z,97945.67
2018-10-19T18:55:01.234Z,97948.91
2018-10-19T18:56:39.448Z,97950.36
2018-10-19T18:58:15.766Z,97953.70
2018-10-19T18:59:52.597Z,97950.42
2018-10-19T19:01:31.072Z,97957.06
2018-10-19T19:03:09.261Z,97961.93
2018-10-19T19:04:47.195Z,97970.97
2018-10-19T19:06:23.295Z,97975.80
2018-10-19T19:08:00.029Z,97980.90
2018-10-19T19:09:39.203Z,97985.93